Latest Coastal Weather Observations for Gannett Cay

IDQ60701

Issued at 8:21 am EST Sunday 2 August 2015 (issued every 10 minutes, with the page automatically refreshed every 10 minutes)

About coastal observations | Map of coastal stations | Coastal observations for QLD | Marine services | Other Formats
Station Details ID: 200831 Name: GANNET CAY Lat: -21.98 Lon: 152.47 Height: 2.3 m
Data from the previous 72 hours. | See also: Recent months for locations in Queensland
Date/Time
EST
Temp

°C
Wind Pressure Rain
since 9am
mm
Weather Cloud Vis
km
Sea
Height
m
Swell
Dir
 
Speed
knots
Gust
knots
hPa Trend Height
m
Period
s
Dir
02/08:00am 22.3 E 15 18 1021.4 - - - - - - - - -
02/07:30am 22.6 E 16 18 1021.2 - - - - - - - - -
02/07:00am 22.5 E 17 19 1020.9 - - - - - - - - -
02/06:30am 22.2 ENE 17 19 1020.8 - - - - - - - - -
02/06:00am 21.7 E 12 15 1020.5 - - - - - - - - -
02/05:30am 21.1 ESE 12 13 1020.3 - - - - - - - - -
02/05:00am 21.2 E 11 14 1020.0 - - - - - - - - -
02/04:30am 20.3 E 14 18 1019.9 - - - - - - - - -
02/04:00am 21.3 SE 15 18 1019.9 - - - - - - - - -
02/03:30am 21.4 ESE 13 15 1020.3 - - - - - - - - -
02/03:00am 21.4 ESE 14 16 1020.3 - - - - - - - - -
02/02:30am 21.8 ESE 17 21 1020.5 - - - - - - - - -
02/02:00am 21.2 E 14 17 1020.6 - - - - - - - - -
02/01:30am 21.7 ESE 17 20 1020.7 - - - - - - - - -
02/01:00am 21.5 SE 14 17 1020.8 - - - - - - - - -
02/12:30am 21.8 SE 16 19 1021.2 - - - - - - - - -
02/12:00am 21.7 SE 17 19 1021.2 - - - - - - - - -
 
Date/Time
EST
Temp

°C
Wind Pressure Rain
since 9am
mm
Weather Cloud Vis
km
Sea
Height
m
Swell
Dir
 
Speed
knots
Gust
knots
hPa Trend Height
m
Period
s
Dir
01/11:30pm 21.7 SE 16 19 1021.2 - - - - - - - - -
01/11:00pm 21.7 SE 18 20 1021.1 - - - - - - - - -
01/10:30pm 21.7 SE 17 20 1021.2 - - - - - - - - -
01/10:00pm 21.8 SE 18 21 1020.9 - - - - - - - - -
01/09:30pm 22.0 SE 18 20 1021.0 - - - - - - - - -
01/09:00pm 21.7 SE 17 19 1021.0 - - - - - - - - -
01/08:30pm 21.5 SE 17 20 1021.2 - - - - - - - - -
01/08:00pm 21.5 SSE 17 19 1020.9 - - - - - - - - -
01/07:30pm 21.5 SSE 17 19 1020.9 - - - - - - - - -
01/07:00pm 21.3 SSE 17 20 1020.5 - - - - - - - - -
01/06:30pm 21.3 SSE 17 19 1020.2 - - - - - - - - -
01/06:00pm 21.4 SE 16 18 1019.9 - - - - - - - - -
01/05:30pm 21.5 SSE 15 17 1020.0 - - - - - - - - -
01/05:00pm 21.8 SSE 15 17 1019.9 - - - - - - - - -
01/04:30pm 21.9 SSE 14 16 1019.7 - - - - - - - - -
01/04:00pm 22.0 SSE 14 17 1019.6 - - - - - - - - -
01/03:30pm 22.5 SSE 14 15 1019.7 - - - - - - - - -
01/03:00pm 22.5 SSE 13 15 1019.5 - - - - - - - - -
01/02:30pm 22.5 SSE 15 16 1019.6 - - - - - - - - -
01/02:00pm 22.7 SE 11 12 1019.5 - - - - - - - - -
01/01:30pm 22.7 ESE 11 14 1019.9 - - - - - - - - -
01/01:00pm 22.6 ESE 13 15 1020.1 - - - - - - - - -
01/12:30pm 22.5 E 12 15 1020.6 - - - - - - - - -
01/12:00pm 22.4 E 13 16 1020.8 - - - - - - - - -
01/11:30am 22.3 E 14 16 1021.0 - - - - - - - - -
01/11:00am 22.0 ESE 14 17 1021.4 - - - - - - - - -
01/10:30am 21.9 ESE 15 17 1021.9 - - - - - - - - -
01/10:00am 21.8 SE 13 15 1022.1 - - - - - - - - -
01/09:30am 21.8 SE 16 18 1022.3 - - - - - - - - -
01/09:00am 22.0 ESE 14 16 1022.0 - - - - - - - - -
01/08:30am 22.1 ESE 13 15 1022.1 - - - - - - - - -
01/08:00am 21.8 ESE 14 16 1021.9 - - - - - - - - -
01/07:30am 21.7 ESE 18 21 1021.6 - - - - - - - - -
01/07:00am 21.5 ESE 17 20 1021.1 - - - - - - - - -
01/06:30am 21.5 E 17 21 1021.0 - - - - - - - - -
01/06:00am 21.5 ESE 16 20 1020.5 - - - - - - - - -
01/05:30am 21.4 ESE 17 20 1020.3 - - - - - - - - -
01/05:00am 21.5 ESE 17 20 1019.6 - - - - - - - - -
01/04:30am 21.5 E 18 22 1019.6 - - - - - - - - -
01/04:00am 21.4 E 17 19 1019.6 - - - - - - - - -
01/03:30am 21.5 ESE 17 21 1019.6 - - - - - - - - -
01/03:00am 21.5 SE 17 19 1019.7 - - - - - - - - -
01/02:30am 21.3 SE 19 22 1020.0 - - - - - - - - -
01/02:00am 21.4 SE 18 21 1020.2 - - - - - - - - -
01/01:30am 21.6 SE 18 21 1020.5 - - - - - - - - -
01/01:00am 21.5 SE 19 21 1020.6 - - - - - - - - -
01/12:30am 21.4 SE 18 20 1020.8 - - - - - - - - -
01/12:00am 21.5 SE 18 22 1020.9 - - - - - - - - -
 
Date/Time
EST
Temp

°C
Wind Pressure Rain
since 9am
mm
Weather Cloud Vis
km
Sea
Height
m
Swell
Dir
 
Speed
knots
Gust
knots
hPa Trend Height
m
Period
s
Dir
31/11:30pm 21.4 ESE 18 23 1021.2 - - - - - - - - -
31/11:00pm 21.4 ESE 17 23 1021.1 - - - - - - - - -
31/10:30pm 21.4 ESE 18 22 1021.2 - - - - - - - - -
31/10:00pm 21.4 ESE 18 22 1021.1 - - - - - - - - -
31/09:30pm 21.3 SE 16 19 1021.0 - - - - - - - - -
31/09:00pm 21.3 SE 18 21 1020.6 - - - - - - - - -
31/08:30pm 21.4 SE 17 20 1020.6 - - - - - - - - -
31/08:00pm 21.3 SE 18 21 1020.5 - - - - - - - - -
31/07:30pm 21.3 SE 18 22 1020.2 - - - - - - - - -
31/07:00pm 21.3 SE 19 22 1019.9 - - - - - - - - -
31/06:30pm 21.3 SE 19 22 1019.8 - - - - - - - - -
31/06:00pm 21.4 SE 19 21 1019.4 - - - - - - - - -
31/05:30pm 21.4 SE 18 21 1019.4 - - - - - - - - -
31/05:00pm 21.8 SE 18 22 1019.3 - - - - - - - - -
31/04:30pm 21.9 SE 18 21 1019.2 - - - - - - - - -
31/04:00pm 21.9 SE 17 20 1018.9 - - - - - - - - -
31/03:30pm 21.9 SE 16 19 1019.0 - - - - - - - - -
31/03:00pm 22.0 SE 16 20 1019.1 - - - - - - - - -
31/02:30pm 22.0 SE 18 20 1019.7 - - - - - - - - -
31/02:00pm 21.9 SE 18 21 1019.8 - - - - - - - - -
31/01:30pm 21.8 SE 17 19 1020.3 - - - - - - - - -
31/01:00pm 22.1 SE 15 18 1020.4 - - - - - - - - -
31/12:30pm 22.1 SE 16 19 1020.8 - - - - - - - - -
31/12:00pm 22.0 SE 17 19 1021.2 - - - - - - - - -
31/11:30am 22.0 SE 16 19 1021.6 - - - - - - - - -
31/11:00am 21.9 SE 17 20 1021.6 - - - - - - - - -
31/10:30am 21.7 SE 15 18 1022.2 - - - - - - - - -
31/10:00am 21.8 ESE 15 18 1022.4 - - - - - - - - -
31/09:30am 21.8 ESE 14 16 1022.4 - - - - - - - - -
31/09:00am 21.8 ESE 14 17 1022.2 - - - - - - - - -
31/08:30am 21.8 ESE 14 17 1022.1 - - - - - - - - -
31/08:00am 21.7 ESE 16 18 1021.8 - - - - - - - - -
31/07:30am 21.6 ESE 16 19 1021.6 - - - - - - - - -
31/07:00am 21.3 ESE 18 20 1021.2 - - - - - - - - -
31/06:30am 21.2 ESE 20 23 1021.1 - - - - - - - - -
31/06:00am 21.3 SE 21 23 1020.7 - - - - - - - - -
31/05:30am 21.4 ESE 18 21 1020.3 - - - - - - - - -
31/05:00am 21.1 ESE 18 21 1020.1 - - - - - - - - -
31/04:30am 21.1 ESE 18 21 1020.2 - - - - - - - - -
31/04:00am 21.1 ESE 17 19 1020.1 - - - - - - - - -
31/03:30am 21.2 ESE 18 20 1020.4 - - - - - - - - -
31/03:00am 21.0 ESE 14 17 1020.5 - - - - - - - - -
31/02:30am 20.9 SE 17 23 1020.8 - - - - - - - - -
31/02:00am 21.3 ESE 16 19 1021.1 - - - - - - - - -
31/01:30am 21.3 ESE 14 16 1021.6 - - - - - - - - -
31/01:00am 20.7 SSE 11 13 1021.8 - - - - - - - - -
31/12:30am 21.2 ESE 17 19 1022.1 - - - - - - - - -
31/12:00am 20.9 ESE 17 22 1022.1 - - - - - - - - -
 
Date/Time
EST
Temp

°C
Wind Pressure Rain
since 9am
mm
Weather Cloud Vis
km
Sea
Height
m
Swell
Dir
 
Speed
knots
Gust
knots
hPa Trend Height
m
Period
s
Dir
30/11:43pm 19.6 SE 18 29 1022.3 - - - - - - - - -
30/11:30pm 20.8 ESE 19 24 1022.4 - - - - - - - - -
30/11:00pm 21.4 SE 16 19 1022.3 - - - - - - - - -
30/10:30pm 21.3 SE 18 21 1022.3 - - - - - - - - -
30/10:00pm 20.9 ESE 17 21 1022.0 - - - - - - - - -
30/09:30pm 21.3 ESE 18 22 1022.1 - - - - - - - - -
30/09:00pm 21.3 SE 18 22 1022.1 - - - - - - - - -
30/08:30pm 21.3 SE 18 21 1022.2 - - - - - - - - -
30/08:00pm 21.3 ESE 18 21 1022.0 - - - - - - - - -
30/07:30pm 21.1 ESE 18 20 1021.9 - - - - - - - - -
30/07:00pm 21.1 ESE 19 22 1021.5 - - - - - - - - -
30/06:30pm 21.1 ESE 19 21 1021.3 - - - - - - - - -
30/06:00pm 21.2 ESE 19 22 1021.1 - - - - - - - - -
30/05:30pm 21.3 SE 21 24 1020.9 - - - - - - - - -
30/05:00pm 21.5 ESE 20 23 1020.6 - - - - - - - - -
30/04:30pm 21.7 ESE 19 22 1020.7 - - - - - - - - -
30/04:00pm 21.6 SE 19 22 1020.6 - - - - - - - - -
30/03:30pm 21.7 SE 19 22 1020.7 - - - - - - - - -
30/03:00pm 21.9 SE 21 23 1020.6 - - - - - - - - -
30/02:30pm 22.0 ESE 19 21 1020.9 - - - - - - - - -
30/02:00pm 22.0 ESE 19 22 1021.0 - - - - - - - - -
30/01:30pm 22.1 ESE 21 24 1021.4 - - - - - - - - -
30/01:00pm 22.3 ESE 19 22 1021.5 - - - - - - - - -
30/12:30pm 22.1 ESE 21 25 1021.9 - - - - - - - - -
30/12:00pm 22.1 ESE 20 23 1022.3 - - - - - - - - -
30/11:30am 22.1 ESE 20 22 1023.0 - - - - - - - - -
30/11:00am 22.1 ESE 20 23 1023.0 - - - - - - - - -
30/10:30am 22.1 ESE 21 25 1023.2 - - - - - - - - -
30/10:00am 21.9 ESE 21 24 1023.6 - - - - - - - - -
30/09:30am 22.1 ESE 21 25 1023.8 - - - - - - - - -
30/09:00am 21.9 ESE 23 27 1023.6 - - - - - - - - -
30/08:30am 21.6 ESE 22 27 1023.4 - - - - - - - - -

Other Formats:

Comma delimited format used in spreadsheet applications
http://www.bom.gov.au/fwo/IDQ60701/IDQ60701.94379.axf

JavaScript Object Notation format (JSON) in row-major order
http://www.bom.gov.au/fwo/IDQ60701/IDQ60701.94379.json